Robbins, Texas
Current Conditions -  °F | °C
As of 5:15 PM on Wednesday 17 Dec 2014 (Local Time) from KLXY Reporting Station
Light Rain Light Rain  
Wind Chill: 46°   Ceiling: 1400
Heat Index: 46°   Visibility: 10mi
Dew Point: 43°   Wind: 0mph
Humidity: 91%   Direction: NA
Pressure: 30.1"   Gusts: NA
Location:  31.3714°N, 96.2118°W
Report Text: KLXY 172315Z AUTO 00000KT 10SM -RA BKN014 OVC019 08/06 A3010 RMK AO2 P0005 T00750061
Loading
Personal Weather Stations






























Interactive Weather Map New forecast layout! Learn more

10-Day Weather Forecast

Advertisements
Track Severe Weather on mobile